Time;durP1;ratioP1;P1;durP2;ratioP2;P2;SDS_P1;SDS_P2;PMS_P1;PMS_P2;Temp;Humidity;BMP_temperature;BMP_pressure;BME280_temperature;BME280_humidity;BME280_pressure;Samples;Min_cycle;Max_cycle;Signal;HPM_P1;HPM_P2
2022/06/30 00:01:03;;;;;;;11.00;6.63;;;;;;;23.87;58.92;99275.34;5070299;28;20195;-57
2022/06/30 00:03:30;;;;;;;9.70;7.10;;;;;;;23.81;58.91;99273.81;5070070;28;20195;-57
2022/06/30 00:05:57;;;;;;;10.10;7.40;;;;;;;23.79;59.03;99282.66;5070125;28;20198;-57
2022/06/30 00:08:24;;;;;;;11.37;8.10;;;;;;;23.72;59.48;99273.34;5070038;28;20300;-57
2022/06/30 00:10:52;;;;;;;9.48;8.15;;;;;;;23.72;60.25;99270.72;5068992;28;20446;-57
2022/06/30 00:13:19;;;;;;;8.67;7.80;;;;;;;23.71;60.74;99277.72;5070222;28;20207;-57
2022/06/30 00:15:46;;;;;;;8.93;8.03;;;;;;;23.68;60.90;99275.22;5070127;28;20578;-57
2022/06/30 00:18:12;;;;;;;8.37;7.53;;;;;;;23.64;61.07;99270.16;5069932;28;20192;-57
2022/06/30 00:20:39;;;;;;;9.00;8.07;;;;;;;23.61;61.25;99270.28;5069839;28;20192;-57
2022/06/30 00:23:06;;;;;;;11.37;7.80;;;;;;;23.49;62.10;99269.84;5069906;28;20569;-56
2022/06/30 00:25:33;;;;;;;9.67;7.90;;;;;;;23.55;62.10;99273.16;5069834;28;20674;-56
2022/06/30 00:28:01;;;;;;;10.10;7.77;;;;;;;23.55;62.21;99275.78;5069863;28;20210;-56
2022/06/30 00:30:29;;;;;;;10.63;7.37;;;;;;;23.48;62.56;99273.41;5069883;28;20222;-57
2022/06/30 00:32:56;;;;;;;8.30;7.60;;;;;;;23.48;63.07;99275.19;5069863;28;20195;-57
2022/06/30 00:35:23;;;;;;;9.00;7.60;;;;;;;23.47;63.39;99276.09;5069761;28;20196;-57
2022/06/30 00:37:50;;;;;;;10.73;7.87;;;;;;;23.40;63.65;99269.38;5069921;28;20195;-56
2022/06/30 00:40:16;;;;;;;11.77;7.47;;;;;;;23.39;63.98;99278.16;5069894;28;20183;-57
2022/06/30 00:42:43;;;;;;;9.37;7.90;;;;;;;23.40;63.75;99279.88;5069775;28;20196;-56
2022/06/30 00:45:12;;;;;;;8.17;7.40;;;;;;;23.30;64.77;99279.31;5069571;28;20227;-57
2022/06/30 00:47:39;;;;;;;8.40;7.60;;;;;;;23.27;64.72;99270.72;5069645;28;20199;-56
2022/06/30 00:50:07;;;;;;;9.52;6.93;;;;;;;23.27;64.17;99275.97;5069515;28;20098;-57
2022/06/30 00:52:37;;;;;;;8.00;7.20;;;;;;;23.27;64.35;99268.97;5069592;28;20203;-57
2022/06/30 00:55:06;;;;;;;7.50;6.90;;;;;;;23.33;64.14;99270.50;5072283;28;20199;-57
2022/06/30 00:57:34;;;;;;;9.43;7.67;;;;;;;23.29;64.62;99253.19;5073455;28;20282;-57
2022/06/30 01:00:04;;;;;;;8.50;7.60;;;;;;;23.27;64.05;99260.22;5073381;28;20184;-57
2022/06/30 01:02:34;;;;;;;8.23;7.43;;;;;;;23.21;64.79;99257.88;5073535;28;20704;-57
2022/06/30 01:05:01;;;;;;;7.50;6.80;;;;;;;23.15;64.96;99264.22;5073433;28;20191;-57
2022/06/30 01:07:30;;;;;;;8.30;7.40;;;;;;;23.16;65.08;99262.41;5072910;28;20442;-57
2022/06/30 01:12:43;;;;;;;12.33;7.73;;;;;;;23.07;65.04;99260.16;5039647;28;20231;-57
2022/06/30 01:15:11;;;;;;;7.57;6.87;;;;;;;23.03;65.81;99259.41;5073339;28;20199;-56
2022/06/30 01:17:39;;;;;;;8.83;7.93;;;;;;;23.04;65.48;99261.13;5073021;28;20195;-56
2022/06/30 01:20:07;;;;;;;10.23;8.05;;;;;;;23.03;65.38;99261.19;5072656;28;20442;-57
2022/06/30 01:22:36;;;;;;;8.30;7.07;;;;;;;23.04;64.75;99263.75;5073082;28;20187;-57
2022/06/30 01:25:03;;;;;;;8.30;7.47;;;;;;;22.96;64.60;99259.72;5072946;28;20192;-57
2022/06/30 01:27:29;;;;;;;8.93;7.00;;;;;;;23.05;65.09;99269.84;5072885;28;20191;-57
2022/06/30 01:29:57;;;;;;;7.80;7.00;;;;;;;23.05;64.70;99256.72;5072838;28;20191;-56
2022/06/30 01:32:25;;;;;;;8.57;7.27;;;;;;;22.97;64.96;99262.25;5072814;28;20689;-57
2022/06/30 01:34:52;;;;;;;10.10;6.97;;;;;;;23.06;64.04;99268.94;5072815;28;20667;-56
2022/06/30 01:37:19;;;;;;;9.20;7.03;;;;;;;23.01;64.31;99257.78;5072800;28;20198;-57
2022/06/30 01:39:48;;;;;;;7.80;6.93;;;;;;;23.05;63.99;99265.44;5072728;28;20192;-57
2022/06/30 01:42:14;;;;;;;8.20;7.40;;;;;;;23.02;64.21;99264.72;5073058;28;20195;-56
2022/06/30 01:44:41;;;;;;;7.77;6.97;;;;;;;23.07;64.26;99268.03;5072645;28;20722;-56
2022/06/30 01:47:09;;;;;;;7.53;6.93;;;;;;;23.06;63.88;99267.16;5072849;28;20198;-56
2022/06/30 01:49:36;;;;;;;9.27;7.50;;;;;;;23.10;64.04;99263.50;5072083;28;20453;-57
2022/06/30 01:52:04;;;;;;;8.87;6.93;;;;;;;23.07;63.79;99247.06;5072506;28;20280;-57
2022/06/30 01:54:31;;;;;;;7.13;6.37;;;;;;;23.10;63.94;99262.69;5072482;28;20651;-57
2022/06/30 01:56:59;;;;;;;7.17;6.47;;;;;;;23.09;64.03;99263.56;5072578;28;20217;-56
2022/06/30 01:59:26;;;;;;;7.27;6.33;;;;;;;23.09;63.71;99261.81;5072446;28;20215;-56
2022/06/30 02:01:53;;;;;;;6.90;6.40;;;;;;;23.11;63.43;99264.34;5072677;28;20192;-57
2022/06/30 02:07:04;;;;;;;7.43;6.80;;;;;;;23.06;63.50;99258.44;5071267;28;20195;-56
2022/06/30 02:09:31;;;;;;;8.33;7.50;;;;;;;23.01;63.64;99257.78;5072108;28;20654;-57
2022/06/30 02:14:43;;;;;;;7.50;6.83;;;;;;;23.05;63.50;99264.59;5072313;28;20195;-56
2022/06/30 02:17:10;;;;;;;7.37;6.77;;;;;;;23.02;63.30;99257.69;5072194;28;20200;-56
2022/06/30 02:19:37;;;;;;;8.80;7.17;;;;;;;23.08;63.05;99260.09;5072180;28;20199;-57
2022/06/30 02:22:04;;;;;;;7.90;7.03;;;;;;;23.05;63.31;99254.97;5072321;28;20198;-56
2022/06/30 02:24:31;;;;;;;7.33;6.70;;;;;;;23.07;63.00;99254.91;5071780;28;20671;-56
2022/06/30 02:26:59;;;;;;;7.27;6.67;;;;;;;23.04;63.40;99255.91;5071970;28;20261;-57
2022/06/30 02:29:26;;;;;;;7.67;6.83;;;;;;;22.99;63.19;99256.97;5071843;28;20199;-57
2022/06/30 02:31:53;;;;;;;9.03;7.33;;;;;;;23.01;63.18;99260.41;5071605;28;20729;-57
2022/06/30 02:34:20;;;;;;;13.07;7.73;;;;;;;23.01;63.03;99255.16;5071883;28;20203;-57
2022/06/30 02:36:47;;;;;;;9.73;7.50;;;;;;;23.07;63.02;99266.25;5070471;28;20441;-57
2022/06/30 02:39:14;;;;;;;8.53;7.30;;;;;;;23.12;62.62;99256.47;5071593;28;20248;-57
2022/06/30 02:41:41;;;;;;;7.63;6.93;;;;;;;23.22;62.46;99259.56;5071630;28;20188;-57
2022/06/30 02:44:09;;;;;;;7.63;6.93;;;;;;;23.22;61.89;99272.66;5071561;28;20235;-57
2022/06/30 02:46:36;;;;;;;7.50;6.70;;;;;;;23.24;61.60;99263.00;5071307;28;20191;-57
2022/06/30 02:49:02;;;;;;;10.38;6.97;;;;;;;23.27;61.39;99270.72;5070478;28;20445;-57
2022/06/30 02:51:29;;;;;;;9.40;7.70;;;;;;;23.33;62.17;99275.72;5071207;28;20219;-56
2022/06/30 02:53:56;;;;;;;7.30;6.60;;;;;;;23.31;61.65;99278.44;5071520;28;20221;-57
2022/06/30 02:56:23;;;;;;;9.70;7.33;;;;;;;23.34;61.98;99280.94;5071403;28;20188;-56
2022/06/30 02:58:50;;;;;;;8.87;7.27;;;;;;;23.35;61.73;99282.63;5071263;28;20192;-57
2022/06/30 03:01:18;;;;;;;7.90;7.20;;;;;;;23.37;61.10;99283.47;5071003;28;20199;-57
2022/06/30 03:03:45;;;;;;;10.60;7.80;;;;;;;23.44;61.14;99286.69;5071332;28;20195;-56
2022/06/30 03:06:12;;;;;;;10.75;8.77;;;;;;;23.65;60.71;99280.59;5070182;28;20430;-57
2022/06/30 03:08:39;;;;;;;8.47;7.10;;;;;;;23.86;59.95;99282.38;5071199;28;20218;-57
2022/06/30 03:11:06;;;;;;;9.10;7.07;;;;;;;24.05;59.46;99290.31;5070966;28;20219;-57
2022/06/30 03:13:32;;;;;;;10.40;7.70;;;;;;;24.19;59.17;99292.41;5070992;28;20219;-56
2022/06/30 03:16:01;;;;;;;10.80;8.03;;;;;;;24.03;60.96;99292.16;5070785;28;20251;-56
2022/06/30 03:18:29;;;;;;;9.35;8.32;;;;;;;24.04;61.32;99293.84;5069380;28;20500;-57
2022/06/30 03:20:56;;;;;;;8.23;7.47;;;;;;;24.00;61.73;99290.53;5070850;28;20187;-57
2022/06/30 03:23:23;;;;;;;12.37;7.70;;;;;;;23.89;61.83;99295.38;5070762;28;20196;-57
2022/06/30 03:25:50;;;;;;;12.30;7.90;;;;;;;23.82;61.73;99293.88;5070730;28;20223;-57
2022/06/30 03:28:17;;;;;;;10.23;7.87;;;;;;;23.66;61.97;99299.81;5070771;28;20195;-57
2022/06/30 03:30:45;;;;;;;8.30;7.47;;;;;;;23.72;62.10;99299.56;5070831;28;20310;-57
2022/06/30 03:33:12;;;;;;;13.50;8.33;;;;;;;23.66;62.79;99295.41;5070671;28;20665;-56
2022/06/30 03:35:40;;;;;;;10.37;8.10;;;;;;;23.56;63.30;99298.47;5070719;28;20278;-57
2022/06/30 03:38:07;;;;;;;14.57;8.30;;;;;;;23.62;63.04;99304.34;5070509;28;20195;-56
2022/06/30 03:40:34;;;;;;;11.27;9.80;;;;;;;23.56;63.62;99301.97;5070580;28;20195;-57
2022/06/30 03:43:02;;;;;;;12.00;9.73;;;;;;;23.49;64.00;99308.34;5070431;28;20195;-57
2022/06/30 03:45:29;;;;;;;14.10;9.57;;;;;;;23.30;64.56;99308.16;5070239;28;20450;-56
2022/06/30 03:47:56;;;;;;;10.77;9.77;;;;;;;23.24;65.48;99295.28;5070538;28;20192;-57
2022/06/30 03:50:23;;;;;;;13.27;10.27;;;;;;;23.10;66.13;99300.19;5070587;28;20195;-57
2022/06/30 03:52:51;;;;;;;14.63;9.17;;;;;;;23.00;66.19;99305.84;5070254;28;20713;-57
2022/06/30 03:55:19;;;;;;;16.30;9.33;;;;;;;23.25;65.69;99311.88;5070266;28;20200;-57
2022/06/30 03:57:46;;;;;;;15.90;10.00;;;;;;;23.33;65.56;99312.44;5070342;28;20198;-57
2022/06/30 04:00:13;;;;;;;13.30;10.03;;;;;;;23.37;65.14;99312.31;5070610;28;20215;-57
2022/06/30 04:02:40;;;;;;;16.23;10.27;;;;;;;23.53;64.07;99319.56;5070092;28;20503;-57
2022/06/30 04:05:08;;;;;;;13.90;10.20;;;;;;;23.66;64.13;99318.16;5070010;28;20200;-57
2022/06/30 04:07:40;;;;;;;16.70;10.90;;;;;;;23.62;64.05;99311.34;5070203;28;20187;-57
2022/06/30 04:10:09;;;;;;;15.47;10.23;;;;;;;23.48;64.72;99311.91;5070243;28;20625;-57
2022/06/30 04:12:36;;;;;;;12.93;10.17;;;;;;;23.42;65.11;99320.00;5069845;28;20218;-57
2022/06/30 04:15:03;;;;;;;14.32;10.82;;;;;;;23.49;64.54;99319.69;5069503;28;20438;-57
2022/06/30 04:17:33;;;;;;;11.87;9.30;;;;;;;23.62;63.67;99309.59;5069897;28;20257;-58
2022/06/30 04:20:00;;;;;;;12.63;9.33;;;;;;;23.65;63.65;99322.56;5069942;28;20206;-57
2022/06/30 04:22:27;;;;;;;8.97;8.07;;;;;;;23.77;61.88;99323.84;5069796;28;20214;-57
2022/06/30 04:24:54;;;;;;;11.73;8.60;;;;;;;23.87;60.49;99331.28;5069933;28;20192;-57
2022/06/30 04:27:23;;;;;;;8.80;8.00;;;;;;;23.94;60.31;99326.66;5069756;28;20191;-57
2022/06/30 04:29:49;;;;;;;10.87;7.97;;;;;;;24.03;60.73;99331.53;5071919;28;20191;-57
2022/06/30 04:35:01;;;;;;;11.20;8.20;;;;;;;24.23;59.30;99328.13;5073933;28;20574;-57
2022/06/30 04:37:27;;;;;;;9.67;7.70;;;;;;;24.33;58.74;99330.31;5074073;28;20192;-56
2022/06/30 04:41:23;;;;;;;10.97;7.70;;;;;;;24.43;58.21;99328.13;5073643;28;20195;-57
2022/06/30 04:42:41;;;;;;;9.17;7.37;;;;;;;24.48;57.69;99339.28;5073733;28;20214;-56
2022/06/30 04:45:09;;;;;;;12.73;8.77;;;;;;;24.55;58.03;99330.25;5073441;28;20266;-57
2022/06/30 04:47:36;;;;;;;8.33;7.63;;;;;;;24.56;56.79;99332.78;5073867;28;20199;-57
2022/06/30 04:50:04;;;;;;;8.93;8.07;;;;;;;24.63;57.16;99326.38;5073625;28;20192;-57
2022/06/30 04:52:31;;;;;;;8.87;7.97;;;;;;;24.70;57.20;99336.59;5073345;28;20220;-57
2022/06/30 04:54:58;;;;;;;8.10;7.40;;;;;;;24.68;56.71;99341.91;5073110;28;20191;-59
2022/06/30 04:57:24;;;;;;;9.03;7.97;;;;;;;24.74;56.52;99335.53;5073339;28;20191;-57
2022/06/30 04:59:53;;;;;;;8.10;7.50;;;;;;;24.79;56.44;99336.19;5073229;28;20210;-57
2022/06/30 05:02:19;;;;;;;9.83;8.30;;;;;;;24.83;56.16;99341.28;5072569;28;20435;-57
2022/06/30 05:04:46;;;;;;;8.70;7.80;;;;;;;24.95;55.63;99340.75;5072965;28;20195;-57
2022/06/30 05:07:13;;;;;;;8.43;6.93;;;;;;;25.00;54.31;99346.63;5073141;28;20199;-56
2022/06/30 05:09:40;;;;;;;9.07;6.60;;;;;;;25.01;54.54;99337.84;5072957;28;20295;-57
2022/06/30 05:12:08;;;;;;;7.63;7.00;;;;;;;25.06;54.94;99333.22;5073076;28;20566;-58
2022/06/30 05:14:35;;;;;;;8.73;7.68;;;;;;;25.12;54.75;99338.22;5072189;28;20444;-58
2022/06/30 05:17:04;;;;;;;9.80;7.43;;;;;;;25.25;54.40;99333.22;5072998;28;20191;-58
2022/06/30 05:19:31;;;;;;;10.88;7.25;;;;;;;25.26;54.83;99334.94;5072912;28;20290;-57
2022/06/30 05:21:58;;;;;;;9.27;7.90;;;;;;;25.30;54.66;99338.31;5072720;28;20663;-57
2022/06/30 05:27:08;;;;;;;10.03;7.37;;;;;;;25.45;54.40;99351.59;5072680;28;20705;-56
2022/06/30 05:29:35;;;;;;;13.10;7.60;;;;;;;25.53;53.19;99352.13;5072857;28;20298;-57
2022/06/30 05:32:04;;;;;;;10.82;7.80;;;;;;;25.64;53.19;99351.59;5071684;28;20446;-56
2022/06/30 05:34:31;;;;;;;8.37;7.30;;;;;;;25.71;52.73;99347.78;5072362;28;20198;-57
2022/06/30 05:36:58;;;;;;;11.77;8.33;;;;;;;25.80;53.12;99352.59;5072310;28;20195;-57
2022/06/30 05:39:25;;;;;;;9.67;8.60;;;;;;;25.79;53.09;99348.25;5072186;28;20199;-57
2022/06/30 05:41:51;;;;;;;14.17;8.23;;;;;;;25.80;53.35;99350.81;5071960;28;20194;-57
2022/06/30 05:44:18;;;;;;;11.65;8.05;;;;;;;25.81;53.21;99354.31;5071488;28;20457;-58
2022/06/30 05:46:45;;;;;;;8.57;7.43;;;;;;;25.93;52.90;99358.97;5072101;28;20248;-58
2022/06/30 05:49:13;;;;;;;8.67;7.87;;;;;;;25.99;53.06;99356.03;5072206;28;20195;-57
2022/06/30 05:51:41;;;;;;;8.67;7.67;;;;;;;26.03;53.03;99357.59;5071857;28;20219;-58
2022/06/30 05:54:08;;;;;;;9.87;7.43;;;;;;;26.07;52.46;99359.16;5072192;28;20196;-58
2022/06/30 05:56:35;;;;;;;13.33;7.93;;;;;;;26.17;51.81;99357.81;5071884;28;20731;-58
2022/06/30 05:59:02;;;;;;;8.52;7.72;;;;;;;26.24;51.86;99356.56;5072209;28;20195;-58
2022/06/30 06:01:29;;;;;;;9.17;8.17;;;;;;;26.32;52.08;99353.56;5071179;28;20444;-57
2022/06/30 06:03:56;;;;;;;10.13;7.93;;;;;;;26.45;51.71;99366.97;5071822;28;20532;-57
2022/06/30 06:06:24;;;;;;;10.48;8.27;;;;;;;26.48;51.51;99361.56;5071699;28;20654;-57
2022/06/30 06:08:51;;;;;;;9.55;8.60;;;;;;;26.47;50.19;99359.84;5071270;28;20747;-57
2022/06/30 06:11:18;;;;;;;8.75;7.65;;;;;;;26.37;50.60;99362.94;5071486;28;20210;-57
2022/06/30 06:13:44;;;;;;;8.90;7.63;;;;;;;26.48;50.67;99359.75;5071559;28;20183;-57
2022/06/30 06:16:11;;;;;;;10.18;7.93;;;;;;;26.61;50.40;99360.00;5071271;28;20195;-57
2022/06/30 06:18:38;;;;;;;11.82;7.95;;;;;;;26.70;50.13;99364.81;5071349;28;20195;-57
2022/06/30 06:21:05;;;;;;;8.73;7.82;;;;;;;26.65;51.38;99365.03;5071050;28;20206;-57
2022/06/30 06:23:33;;;;;;;8.70;7.80;;;;;;;26.51;50.94;99366.69;5071137;28;20199;-57
2022/06/30 06:26:00;;;;;;;8.60;7.63;;;;;;;26.48;50.59;99361.56;5071205;28;20191;-57
2022/06/30 06:31:11;;;;;;;18.83;8.05;;;;;;;26.82;49.70;99362.41;5070550;28;20855;-57
2022/06/30 06:33:38;;;;;;;9.27;7.90;;;;;;;26.86;49.36;99365.75;5071103;28;20219;-57
2022/06/30 06:36:06;;;;;;;9.27;8.15;;;;;;;26.57;50.45;99338.22;5071200;28;20210;-57
2022/06/30 06:38:34;;;;;;;10.20;7.93;;;;;;;26.73;50.03;99364.63;5071202;28;20192;-57
2022/06/30 06:41:02;;;;;;;11.77;9.70;;;;;;;26.96;49.57;99364.31;5071054;28;20244;-57
2022/06/30 06:43:29;;;;;;;7.97;7.28;;;;;;;26.88;47.80;99367.38;5070420;28;20447;-57
2022/06/30 06:45:56;;;;;;;8.77;7.82;;;;;;;26.86;48.59;99368.38;5071177;28;20195;-56
2022/06/30 06:48:23;;;;;;;15.60;8.23;;;;;;;27.06;48.39;99364.72;5070907;28;20278;-57
2022/06/30 06:50:50;;;;;;;10.48;7.93;;;;;;;27.16;47.99;99365.91;5071341;28;20617;-57
2022/06/30 06:53:17;;;;;;;9.20;8.30;;;;;;;27.37;48.37;99365.59;5070238;28;20211;-57
2022/06/30 06:55:45;;;;;;;12.40;11.13;;;;;;;27.46;48.48;99365.16;5070692;28;20202;-57
2022/06/30 06:58:12;;;;;;;11.48;8.48;;;;;;;27.59;47.87;99364.47;5070588;28;20191;-57
2022/06/30 07:00:39;;;;;;;9.82;7.78;;;;;;;27.70;47.02;99368.22;5069986;28;20445;-57
2022/06/30 07:03:06;;;;;;;8.30;7.30;;;;;;;27.81;45.86;99359.69;5070428;28;20195;-57
2022/06/30 07:05:33;;;;;;;11.38;8.40;;;;;;;27.96;45.75;99359.66;5070483;28;20282;-57
2022/06/30 07:08:01;;;;;;;11.70;7.95;;;;;;;28.01;44.93;99362.06;5070424;28;20191;-57
2022/06/30 07:10:29;;;;;;;9.13;8.13;;;;;;;28.14;45.79;99365.75;5070325;28;20191;-57
2022/06/30 07:12:57;;;;;;;13.85;8.70;;;;;;;28.11;46.17;99360.63;5069549;28;20449;-57
2022/06/30 07:15:24;;;;;;;11.65;8.77;;;;;;;28.06;45.15;99347.69;5069965;28;20199;-57
2022/06/30 07:17:51;;;;;;;12.70;8.95;;;;;;;28.29;46.46;99349.00;5070270;28;20273;-57
2022/06/30 07:20:18;;;;;;;10.73;8.07;;;;;;;28.45;46.30;99336.59;5070091;28;20257;-57
2022/06/30 07:22:45;;;;;;;12.50;7.82;;;;;;;28.53;45.53;99341.41;5069916;28;20195;-57
2022/06/30 07:25:11;;;;;;;13.45;8.05;;;;;;;28.61;45.90;99347.09;5069944;28;20686;-57
2022/06/30 07:27:38;;;;;;;10.90;7.97;;;;;;;28.38;45.01;99342.31;5069892;28;20203;-57
2022/06/30 07:30:08;;;;;;;9.30;7.90;;;;;;;28.53;45.49;99338.78;5069224;28;20438;-57
2022/06/30 07:32:36;;;;;;;14.23;7.65;;;;;;;28.73;44.92;99332.34;5069728;28;20697;-57
2022/06/30 07:35:04;;;;;;;8.70;7.45;;;;;;;28.82;43.62;99331.75;5069565;28;20286;-57
2022/06/30 07:37:31;;;;;;;17.98;8.80;;;;;;;28.96;43.87;99337.91;5069620;28;20286;-57
2022/06/30 07:39:58;;;;;;;7.40;6.63;;;;;;;28.79;43.53;99319.56;5069589;28;20682;-57
2022/06/30 07:42:25;;;;;;;8.05;7.25;;;;;;;28.70;43.88;99333.38;5069949;28;20199;-57
2022/06/30 07:44:52;;;;;;;11.77;7.70;;;;;;;28.73;43.78;99330.53;5069490;28;20223;-57
2022/06/30 07:47:20;;;;;;;14.65;7.50;;;;;;;28.75;42.81;99338.38;5069600;28;20188;-57
2022/06/30 07:49:47;;;;;;;9.55;6.78;;;;;;;28.66;42.98;99345.91;5069479;28;20191;-57
2022/06/30 07:52:14;;;;;;;7.78;6.55;;;;;;;28.81;42.71;99336.22;5069221;28;20223;-57
2022/06/30 07:54:41;;;;;;;13.40;7.38;;;;;;;28.95;43.38;99335.38;5069279;28;20199;-57
2022/06/30 07:57:08;;;;;;;9.80;6.93;;;;;;;28.62;42.56;99319.72;5069281;28;20203;-57
2022/06/30 07:59:35;;;;;;;11.52;7.70;;;;;;;28.91;42.11;99340.00;5069115;28;20445;-57
2022/06/30 08:02:01;;;;;;;9.63;7.85;;;;;;;28.96;42.00;99329.97;5069378;28;20571;-57
2022/06/30 08:04:30;;;;;;;9.10;7.57;;;;;;;29.19;41.67;99329.41;5068556;28;20195;-58
2022/06/30 08:06:57;;;;;;;8.85;7.40;;;;;;;29.21;41.10;99326.66;5069388;28;20195;-57
2022/06/30 08:09:24;;;;;;;10.63;8.65;;;;;;;29.21;41.94;99326.66;5069056;28;20226;-57
2022/06/30 08:11:53;;;;;;;14.75;12.60;;;;;;;29.32;42.16;99337.47;5068798;28;20457;-57
2022/06/30 08:14:20;;;;;;;9.88;8.82;;;;;;;29.46;40.47;99331.28;5068888;28;20253;-57
2022/06/30 08:16:47;;;;;;;15.20;9.85;;;;;;;29.60;41.40;99334.78;5069141;28;20662;-57
2022/06/30 08:19:14;;;;;;;12.90;9.27;;;;;;;29.75;41.91;99325.81;5069010;28;20195;-58
2022/06/30 08:21:42;;;;;;;11.52;9.35;;;;;;;29.91;41.27;99325.72;5069021;28;20191;-57
2022/06/30 08:24:09;;;;;;;14.45;8.90;;;;;;;30.04;41.78;99331.91;5069135;28;20655;-57
2022/06/30 08:26:36;;;;;;;9.43;8.52;;;;;;;30.18;41.07;99331.00;5068948;28;20187;-58
2022/06/30 08:29:03;;;;;;;15.17;9.30;;;;;;;30.21;39.57;99325.50;5069077;28;20476;-57
2022/06/30 08:31:31;;;;;;;8.57;7.80;;;;;;;30.26;39.13;99323.38;5069246;28;20191;-57
2022/06/30 08:33:58;;;;;;;17.90;8.13;;;;;;;30.25;38.81;99327.84;5068903;28;20265;-57
2022/06/30 08:36:24;;;;;;;10.40;7.80;;;;;;;30.23;38.69;99332.41;5068969;28;20283;-57
2022/06/30 08:38:53;;;;;;;8.90;6.80;;;;;;;30.33;38.40;99325.50;5068888;28;20214;-57
2022/06/30 08:44:04;;;;;;;10.30;7.13;;;;;;;30.35;37.73;99325.44;5068574;28;20226;-57
2022/06/30 08:46:33;;;;;;;9.05;6.50;;;;;;;30.41;37.64;99330.34;5068565;28;20207;-57
2022/06/30 08:49:00;;;;;;;9.00;8.10;;;;;;;30.49;38.49;99335.97;5068311;28;20195;-57
2022/06/30 08:51:29;;;;;;;12.00;7.28;;;;;;;30.60;38.24;99328.13;5068901;28;20191;-57
2022/06/30 08:54:00;;;;;;;7.15;6.50;;;;;;;30.64;38.51;99324.31;5068732;28;20212;-57
2022/06/30 08:56:30;;;;;;;11.50;7.70;;;;;;;30.68;37.88;99323.19;5068506;28;20252;-57
2022/06/30 08:58:58;;;;;;;11.23;7.50;;;;;;;30.77;37.99;99317.22;5067670;28;20448;-57
2022/06/30 09:01:26;;;;;;;8.60;7.63;;;;;;;30.85;37.63;99325.50;5068695;28;20208;-57
2022/06/30 09:03:53;;;;;;;8.30;6.28;;;;;;;31.02;36.59;99320.84;5068825;28;20180;-57
2022/06/30 09:06:20;;;;;;;9.20;5.93;;;;;;;31.14;35.54;99327.94;5068653;28;20192;-57
2022/06/30 09:08:47;;;;;;;6.72;5.93;;;;;;;31.14;35.66;99327.94;5068726;28;20202;-57
2022/06/30 09:11:16;;;;;;;8.80;5.88;;;;;;;31.06;35.83;99314.38;5067779;28;20441;-58
2022/06/30 09:13:44;;;;;;;6.95;6.25;;;;;;;31.16;36.53;99323.38;5068318;28;20254;-57
2022/06/30 09:16:12;;;;;;;6.88;5.80;;;;;;;31.12;34.89;99320.09;5070749;28;20187;-57
2022/06/30 09:18:39;;;;;;;6.97;5.82;;;;;;;31.25;35.74;99312.13;5072457;28;20530;-58
2022/06/30 09:21:16;;;;;;;6.20;5.70;;;;;;;31.30;35.26;99317.94;5071909;28;20192;-58
2022/06/30 09:23:44;;;;;;;9.13;5.70;;;;;;;31.38;34.47;99321.75;5072168;28;20839;-56
2022/06/30 09:26:19;;;;;;;9.07;6.35;;;;;;;31.50;34.74;99315.59;5071951;28;20727;-57
2022/06/30 09:28:50;;;;;;;6.10;5.50;;;;;;;31.63;33.73;99318.19;5071682;28;20274;-57
2022/06/30 09:31:33;;;;;;;5.95;5.40;;;;;;;31.75;34.49;99324.44;5072079;28;20214;-57
2022/06/30 09:34:12;;;;;;;5.82;5.22;;;;;;;31.77;33.16;99319.84;5072285;28;20231;-57
2022/06/30 09:36:39;;;;;;;7.38;6.32;;;;;;;31.82;33.82;99320.34;5072469;28;20677;-57
2022/06/30 09:39:08;;;;;;;8.25;6.20;;;;;;;31.90;33.65;99312.66;5072060;28;20183;-57
2022/06/30 09:41:39;;;;;;;6.90;5.65;;;;;;;31.87;33.44;99319.06;5070732;28;20982;-57
2022/06/30 09:44:07;;;;;;;7.13;6.00;;;;;;;31.88;33.50;99317.25;5071609;28;20300;-57
2022/06/30 09:46:36;;;;;;;9.00;6.32;;;;;;;31.91;34.00;99320.53;5072079;28;20202;-57
2022/06/30 09:49:03;;;;;;;11.25;6.38;;;;;;;32.05;33.81;99312.41;5072120;28;20234;-57
2022/06/30 09:51:31;;;;;;;8.13;7.30;;;;;;;32.05;34.20;99320.41;5072097;28;20245;-57
2022/06/30 09:54:09;;;;;;;13.10;6.50;;;;;;;32.16;33.75;99314.28;5071757;28;20659;-57
2022/06/30 09:56:38;;;;;;;8.55;6.70;;;;;;;32.15;35.59;99303.72;5072374;28;20203;-57
2022/06/30 09:59:07;;;;;;;7.33;6.47;;;;;;;32.30;34.05;99310.56;5071079;28;20445;-57
2022/06/30 10:01:50;;;;;;;6.57;5.97;;;;;;;32.47;33.77;99310.97;5071930;28;20215;-57
2022/06/30 10:04:17;;;;;;;7.53;6.78;;;;;;;32.48;34.07;99311.81;5072373;28;20202;-57
2022/06/30 10:06:45;;;;;;;6.88;6.18;;;;;;;32.25;33.36;99310.06;5071871;28;20278;-57
2022/06/30 10:09:15;;;;;;;6.68;6.07;;;;;;;32.33;33.42;99303.19;5072171;28;20207;-57
2022/06/30 10:11:44;;;;;;;7.20;6.55;;;;;;;32.43;33.96;99290.91;5071353;28;20272;-58
2022/06/30 10:14:12;;;;;;;8.10;6.93;;;;;;;32.53;33.50;99296.34;5059677;28;20212;-57
2022/06/30 10:16:40;;;;;;;11.15;7.28;;;;;;;32.23;33.52;99243.69;5070395;28;20609;-58
2022/06/30 10:19:09;;;;;;;11.20;7.13;;;;;;;32.65;33.98;99290.13;5071221;28;20669;-58
2022/06/30 10:21:37;;;;;;;10.43;6.63;;;;;;;32.77;34.02;99283.00;5061438;28;20204;-57
2022/06/30 10:24:05;;;;;;;11.45;6.55;;;;;;;32.67;33.62;99261.56;5050906;28;20242;-57
2022/06/30 10:29:19;;;;;;;7.57;6.80;;;;;;;33.02;34.47;99275.59;5051474;28;20190;-57
2022/06/30 10:31:51;;;;;;;8.77;7.88;;;;;;;33.10;33.36;99283.88;5051634;28;20196;-57
2022/06/30 10:34:24;;;;;;;8.35;7.63;;;;;;;33.09;33.35;99271.53;5051193;28;20661;-57
2022/06/30 10:37:00;;;;;;;7.28;6.28;;;;;;;33.00;33.71;99268.72;5051386;28;20192;-57
2022/06/30 10:39:39;;;;;;;9.40;6.82;;;;;;;32.94;33.86;99272.72;5051092;28;20198;-57
2022/06/30 10:42:06;;;;;;;7.40;6.60;;;;;;;33.01;34.05;99265.09;5051756;28;20190;-59
2022/06/30 10:44:34;;;;;;;12.57;7.57;;;;;;;33.09;33.45;99260.88;5050982;28;20224;-57
2022/06/30 10:47:06;;;;;;;7.85;6.40;;;;;;;32.95;33.17;99269.09;5050879;28;20216;-58
2022/06/30 10:49:33;;;;;;;7.18;6.43;;;;;;;32.94;33.07;99266.53;5050498;28;20454;-57
2022/06/30 10:52:22;;;;;;;8.18;6.88;;;;;;;32.78;33.12;99260.72;5050840;28;20670;-57
2022/06/30 10:54:49;;;;;;;6.82;6.13;;;;;;;32.50;34.75;99254.88;5051189;28;20223;-57
2022/06/30 10:57:17;;;;;;;8.48;6.85;;;;;;;32.80;34.05;99259.63;5050182;28;20461;-57
2022/06/30 10:59:45;;;;;;;7.68;6.57;;;;;;;32.99;33.38;99257.22;5050373;28;20549;-57
2022/06/30 11:02:23;;;;;;;7.65;6.75;;;;;;;33.26;33.39;99254.22;5050694;28;20192;-57
2022/06/30 11:04:52;;;;;;;6.30;5.70;;;;;;;33.28;32.62;99254.06;5051042;28;20199;-57
2022/06/30 11:07:20;;;;;;;7.75;6.22;;;;;;;33.23;32.69;99247.31;5051198;28;20859;-57
2022/06/30 11:10:06;;;;;;;9.32;7.93;;;;;;;33.32;32.43;99247.53;5050479;28;20275;-56
2022/06/30 11:12:55;;;;;;;7.85;5.53;;;;;;;33.34;32.93;99245.59;5050327;28;20617;-57
2022/06/30 11:15:44;;;;;;;8.70;6.57;;;;;;;33.25;32.91;99224.06;5064670;28;21068;-57
2022/06/30 11:18:11;;;;;;;7.40;6.63;;;;;;;33.55;32.09;99238.50;5068291;28;20651;-57
2022/06/30 11:20:44;;;;;;;6.32;5.55;;;;;;;33.61;31.51;99233.56;5070191;28;20195;-57
2022/06/30 11:23:11;;;;;;;7.18;6.47;;;;;;;33.64;32.04;99227.13;5070634;28;20192;-57
2022/06/30 11:28:29;;;;;;;8.43;5.45;;;;;;;33.71;29.99;99234.47;5070254;28;20309;-57
2022/06/30 11:30:57;;;;;;;9.63;5.97;;;;;;;33.73;30.05;99237.03;5070241;28;20184;-57
2022/06/30 11:33:24;;;;;;;8.00;6.93;;;;;;;33.84;30.54;99237.81;5070012;28;20222;-56
2022/06/30 11:36:09;;;;;;;6.75;5.60;;;;;;;33.80;30.28;99233.72;5069969;28;20693;-56
2022/06/30 11:38:37;;;;;;;7.03;5.15;;;;;;;33.96;30.12;99232.44;5069884;28;20290;-57
2022/06/30 11:43:53;;;;;;;7.13;6.43;;;;;;;33.83;31.82;99238.81;5061711;28;20273;-58
2022/06/30 11:46:21;;;;;;;5.97;5.40;;;;;;;33.91;30.01;99230.16;5049303;28;20644;-57
2022/06/30 11:48:49;;;;;;;9.40;5.00;;;;;;;33.95;29.29;99236.09;5048076;28;20199;-58
2022/06/30 11:51:16;;;;;;;6.87;5.70;;;;;;;33.73;29.36;99229.03;5050064;28;20439;-57
2022/06/30 11:53:45;;;;;;;14.52;6.80;;;;;;;33.94;28.72;99226.38;5051215;28;20227;-57
2022/06/30 11:56:12;;;;;;;7.95;5.57;;;;;;;34.08;29.02;99218.09;5048541;28;20188;-58
2022/06/30 11:58:39;;;;;;;5.35;4.72;;;;;;;33.82;28.21;99223.75;5048447;28;20729;-57
2022/06/30 12:01:17;;;;;;;9.88;5.93;;;;;;;34.03;29.23;99221.13;5051117;28;20200;-57